sensor_id;sensor_type;location;lat;lon;timestamp;temperature;humidity
34646;DHT22;20857;47.808;12.482;2023-01-16T00:01:32;1.70;99.90
34646;DHT22;20857;47.808;12.482;2023-01-16T00:03:57;1.60;99.90
34646;DHT22;20857;47.808;12.482;2023-01-16T00:06:23;1.50;99.90
34646;DHT22;20857;47.808;12.482;2023-01-16T00:08:48;1.50;99.90
34646;DHT22;20857;47.808;12.482;2023-01-16T00:11:14;1.50;99.90
34646;DHT22;20857;47.808;12.482;2023-01-16T00:13:39;1.60;99.90
34646;DHT22;20857;47.808;12.482;2023-01-16T00:16:05;1.50;99.90
34646;DHT22;20857;47.808;12.482;2023-01-16T00:18:30;1.50;99.90
34646;DHT22;20857;47.808;12.482;2023-01-16T00:20:56;1.50;99.90
34646;DHT22;20857;47.808;12.482;2023-01-16T00:23:21;1.50;99.90
34646;DHT22;20857;47.808;12.482;2023-01-16T00:25:47;1.50;99.90
34646;DHT22;20857;47.808;12.482;2023-01-16T00:28:13;1.50;99.90
34646;DHT22;20857;47.808;12.482;2023-01-16T00:30:39;1.50;99.90
34646;DHT22;20857;47.808;12.482;2023-01-16T00:33:04;1.50;99.90
34646;DHT22;20857;47.808;12.482;2023-01-16T00:35:30;1.40;99.90
34646;DHT22;20857;47.808;12.482;2023-01-16T00:37:56;1.40;99.90
34646;DHT22;20857;47.808;12.482;2023-01-16T00:40:21;1.40;99.90
34646;DHT22;20857;47.808;12.482;2023-01-16T00:42:47;1.60;99.90
34646;DHT22;20857;47.808;12.482;2023-01-16T00:45:12;1.50;99.90
34646;DHT22;20857;47.808;12.482;2023-01-16T00:47:38;1.50;99.90
34646;DHT22;20857;47.808;12.482;2023-01-16T00:50:04;1.50;99.90
34646;DHT22;20857;47.808;12.482;2023-01-16T00:52:29;1.50;99.90
34646;DHT22;20857;47.808;12.482;2023-01-16T00:54:55;1.50;99.90
34646;DHT22;20857;47.808;12.482;2023-01-16T00:57:20;1.50;99.90
34646;DHT22;20857;47.808;12.482;2023-01-16T00:59:46;1.40;99.90
34646;DHT22;20857;47.808;12.482;2023-01-16T01:02:11;1.40;99.90
34646;DHT22;20857;47.808;12.482;2023-01-16T01:04:37;1.40;99.90
34646;DHT22;20857;47.808;12.482;2023-01-16T01:07:02;1.40;99.90
34646;DHT22;20857;47.808;12.482;2023-01-16T01:09:28;1.30;99.90
34646;DHT22;20857;47.808;12.482;2023-01-16T01:11:55;4.00;99.90
34646;DHT22;20857;47.808;12.482;2023-01-16T01:14:20;4.60;99.90
34646;DHT22;20857;47.808;12.482;2023-01-16T01:16:46;1.30;99.90
34646;DHT22;20857;47.808;12.482;2023-01-16T01:19:11;1.20;99.90
34646;DHT22;20857;47.808;12.482;2023-01-16T01:21:37;1.10;99.90
34646;DHT22;20857;47.808;12.482;2023-01-16T01:24:02;1.00;99.90
34646;DHT22;20857;47.808;12.482;2023-01-16T01:26:28;0.90;99.90
34646;DHT22;20857;47.808;12.482;2023-01-16T01:28:53;0.90;99.90
34646;DHT22;20857;47.808;12.482;2023-01-16T01:31:19;1.00;99.90
34646;DHT22;20857;47.808;12.482;2023-01-16T01:33:44;1.00;99.90
34646;DHT22;20857;47.808;12.482;2023-01-16T01:36:09;1.00;99.90
34646;DHT22;20857;47.808;12.482;2023-01-16T01:38:35;1.10;99.90
34646;DHT22;20857;47.808;12.482;2023-01-16T01:41:01;1.10;99.90
34646;DHT22;20857;47.808;12.482;2023-01-16T01:43:40;1.20;99.90
34646;DHT22;20857;47.808;12.482;2023-01-16T01:46:05;1.20;99.90
34646;DHT22;20857;47.808;12.482;2023-01-16T01:48:34;1.20;99.90
34646;DHT22;20857;47.808;12.482;2023-01-16T01:51:02;1.30;99.90
34646;DHT22;20857;47.808;12.482;2023-01-16T01:53:33;1.20;99.90
34646;DHT22;20857;47.808;12.482;2023-01-16T01:56:00;1.30;99.90
34646;DHT22;20857;47.808;12.482;2023-01-16T01:58:26;1.20;99.90
34646;DHT22;20857;47.808;12.482;2023-01-16T02:00:54;1.10;99.90
34646;DHT22;20857;47.808;12.482;2023-01-16T02:03:27;1.20;99.90
34646;DHT22;20857;47.808;12.482;2023-01-16T02:05:55;1.20;99.90
34646;DHT22;20857;47.808;12.482;2023-01-16T02:08:22;1.20;99.90
34646;DHT22;20857;47.808;12.482;2023-01-16T02:11:09;1.20;99.90
34646;DHT22;20857;47.808;12.482;2023-01-16T02:13:59;1.20;99.90
34646;DHT22;20857;47.808;12.482;2023-01-16T02:16:25;1.20;99.90
34646;DHT22;20857;47.808;12.482;2023-01-16T02:19:11;1.10;99.90
34646;DHT22;20857;47.808;12.482;2023-01-16T02:24:18;1.00;99.90
34646;DHT22;20857;47.808;12.482;2023-01-16T02:26:58;1.10;99.90
34646;DHT22;20857;47.808;12.482;2023-01-16T02:29:38;1.20;99.90
34646;DHT22;20857;47.808;12.482;2023-01-16T02:32:16;1.20;99.90
34646;DHT22;20857;47.808;12.482;2023-01-16T02:35:11;1.20;99.90
34646;DHT22;20857;47.808;12.482;2023-01-16T02:45:21;1.10;99.90
34646;DHT22;20857;47.808;12.482;2023-01-16T02:47:58;1.10;99.90
34646;DHT22;20857;47.808;12.482;2023-01-16T02:50:31;1.00;99.90
34646;DHT22;20857;47.808;12.482;2023-01-16T02:53:00;1.00;99.90
34646;DHT22;20857;47.808;12.482;2023-01-16T02:55:34;0.90;99.90
34646;DHT22;20857;47.808;12.482;2023-01-16T02:58:04;1.10;99.90
34646;DHT22;20857;47.808;12.482;2023-01-16T03:00:30;1.10;99.90
34646;DHT22;20857;47.808;12.482;2023-01-16T03:02:55;1.10;99.90
34646;DHT22;20857;47.808;12.482;2023-01-16T03:05:21;1.10;99.90
34646;DHT22;20857;47.808;12.482;2023-01-16T03:12:45;1.10;99.90
34646;DHT22;20857;47.808;12.482;2023-01-16T03:15:13;1.10;99.90
34646;DHT22;20857;47.808;12.482;2023-01-16T03:17:52;1.10;99.90
34646;DHT22;20857;47.808;12.482;2023-01-16T03:22:50;1.00;99.90
34646;DHT22;20857;47.808;12.482;2023-01-16T03:25:34;1.00;99.90
34646;DHT22;20857;47.808;12.482;2023-01-16T03:28:12;1.10;99.90
34646;DHT22;20857;47.808;12.482;2023-01-16T03:35:47;1.10;99.90
34646;DHT22;20857;47.808;12.482;2023-01-16T03:38:14;1.10;99.90
34646;DHT22;20857;47.808;12.482;2023-01-16T03:40:42;1.10;99.90
34646;DHT22;20857;47.808;12.482;2023-01-16T03:43:12;1.10;99.90
34646;DHT22;20857;47.808;12.482;2023-01-16T03:45:49;1.10;99.90
34646;DHT22;20857;47.808;12.482;2023-01-16T03:48:21;1.10;99.90
34646;DHT22;20857;47.808;12.482;2023-01-16T03:50:50;1.00;99.90
34646;DHT22;20857;47.808;12.482;2023-01-16T03:53:17;0.80;99.90
34646;DHT22;20857;47.808;12.482;2023-01-16T03:55:46;1.00;99.90
34646;DHT22;20857;47.808;12.482;2023-01-16T03:58:35;1.00;99.90
34646;DHT22;20857;47.808;12.482;2023-01-16T04:06:32;1.00;99.90
34646;DHT22;20857;47.808;12.482;2023-01-16T04:09:01;1.00;99.90
34646;DHT22;20857;47.808;12.482;2023-01-16T04:11:28;0.90;99.90
34646;DHT22;20857;47.808;12.482;2023-01-16T04:13:55;0.90;99.90
34646;DHT22;20857;47.808;12.482;2023-01-16T04:16:22;1.00;99.90
34646;DHT22;20857;47.808;12.482;2023-01-16T04:18:48;0.90;99.90
34646;DHT22;20857;47.808;12.482;2023-01-16T04:21:14;1.00;99.90
34646;DHT22;20857;47.808;12.482;2023-01-16T04:23:40;0.80;99.90
34646;DHT22;20857;47.808;12.482;2023-01-16T04:26:06;1.00;99.90
34646;DHT22;20857;47.808;12.482;2023-01-16T04:28:31;0.90;99.90
34646;DHT22;20857;47.808;12.482;2023-01-16T04:30:57;0.90;99.90
34646;DHT22;20857;47.808;12.482;2023-01-16T04:33:22;0.90;99.90
34646;DHT22;20857;47.808;12.482;2023-01-16T04:35:48;0.90;99.90
34646;DHT22;20857;47.808;12.482;2023-01-16T04:38:15;0.90;99.90
34646;DHT22;20857;47.808;12.482;2023-01-16T04:40:41;1.00;99.90
34646;DHT22;20857;47.808;12.482;2023-01-16T04:43:06;1.00;99.90
34646;DHT22;20857;47.808;12.482;2023-01-16T04:45:32;1.00;99.90
34646;DHT22;20857;47.808;12.482;2023-01-16T04:47:57;1.10;99.90
34646;DHT22;20857;47.808;12.482;2023-01-16T04:50:22;1.00;99.90
34646;DHT22;20857;47.808;12.482;2023-01-16T04:52:48;1.00;99.90
34646;DHT22;20857;47.808;12.482;2023-01-16T04:55:13;1.00;99.90
34646;DHT22;20857;47.808;12.482;2023-01-16T04:57:39;1.10;99.90
34646;DHT22;20857;47.808;12.482;2023-01-16T05:00:05;1.10;99.90
34646;DHT22;20857;47.808;12.482;2023-01-16T05:02:31;1.10;99.90
34646;DHT22;20857;47.808;12.482;2023-01-16T05:04:56;1.10;99.90
34646;DHT22;20857;47.808;12.482;2023-01-16T05:07:22;1.10;99.90
34646;DHT22;20857;47.808;12.482;2023-01-16T05:09:47;1.10;99.90
34646;DHT22;20857;47.808;12.482;2023-01-16T05:12:13;1.00;99.90
34646;DHT22;20857;47.808;12.482;2023-01-16T05:14:38;1.00;99.90
34646;DHT22;20857;47.808;12.482;2023-01-16T05:17:03;1.00;99.90
34646;DHT22;20857;47.808;12.482;2023-01-16T05:19:29;1.00;99.90
34646;DHT22;20857;47.808;12.482;2023-01-16T05:21:54;1.00;99.90
34646;DHT22;20857;47.808;12.482;2023-01-16T05:24:20;0.90;99.90
34646;DHT22;20857;47.808;12.482;2023-01-16T05:26:45;1.00;99.90
34646;DHT22;20857;47.808;12.482;2023-01-16T05:29:11;0.80;99.90
34646;DHT22;20857;47.808;12.482;2023-01-16T05:31:36;0.90;99.90
34646;DHT22;20857;47.808;12.482;2023-01-16T05:34:02;0.80;99.90
34646;DHT22;20857;47.808;12.482;2023-01-16T05:36:27;0.90;99.90
34646;DHT22;20857;47.808;12.482;2023-01-16T05:38:53;0.90;99.90
34646;DHT22;20857;47.808;12.482;2023-01-16T05:41:19;0.90;99.90
34646;DHT22;20857;47.808;12.482;2023-01-16T05:43:45;1.00;99.90
34646;DHT22;20857;47.808;12.482;2023-01-16T05:46:10;1.00;99.90
34646;DHT22;20857;47.808;12.482;2023-01-16T05:48:36;0.90;99.90
34646;DHT22;20857;47.808;12.482;2023-01-16T05:51:02;1.00;99.90
34646;DHT22;20857;47.808;12.482;2023-01-16T05:53:29;1.00;99.90
34646;DHT22;20857;47.808;12.482;2023-01-16T05:55:56;0.90;99.90
34646;DHT22;20857;47.808;12.482;2023-01-16T05:58:21;0.90;99.90
34646;DHT22;20857;47.808;12.482;2023-01-16T06:00:47;0.80;99.90
34646;DHT22;20857;47.808;12.482;2023-01-16T06:03:12;0.80;99.90
34646;DHT22;20857;47.808;12.482;2023-01-16T06:05:40;0.90;99.90
34646;DHT22;20857;47.808;12.482;2023-01-16T06:08:06;0.90;99.90
34646;DHT22;20857;47.808;12.482;2023-01-16T06:10:31;0.80;99.90
34646;DHT22;20857;47.808;12.482;2023-01-16T06:12:57;0.70;99.90
34646;DHT22;20857;47.808;12.482;2023-01-16T06:15:22;0.80;99.90
34646;DHT22;20857;47.808;12.482;2023-01-16T06:17:48;0.80;99.90
34646;DHT22;20857;47.808;12.482;2023-01-16T06:20:15;0.80;99.90
34646;DHT22;20857;47.808;12.482;2023-01-16T06:22:41;0.90;99.90
34646;DHT22;20857;47.808;12.482;2023-01-16T06:25:07;0.80;99.90
34646;DHT22;20857;47.808;12.482;2023-01-16T06:27:32;0.80;99.90
34646;DHT22;20857;47.808;12.482;2023-01-16T06:29:58;0.60;99.90
34646;DHT22;20857;47.808;12.482;2023-01-16T06:32:23;0.80;99.90
34646;DHT22;20857;47.808;12.482;2023-01-16T06:34:49;0.80;99.90
34646;DHT22;20857;47.808;12.482;2023-01-16T06:37:14;0.80;99.90
34646;DHT22;20857;47.808;12.482;2023-01-16T06:39:40;0.60;99.90
34646;DHT22;20857;47.808;12.482;2023-01-16T06:42:05;0.40;99.90
34646;DHT22;20857;47.808;12.482;2023-01-16T06:44:31;0.40;99.90
34646;DHT22;20857;47.808;12.482;2023-01-16T06:46:57;0.50;99.90
34646;DHT22;20857;47.808;12.482;2023-01-16T06:49:23;0.60;99.90
34646;DHT22;20857;47.808;12.482;2023-01-16T06:51:48;0.50;99.90
34646;DHT22;20857;47.808;12.482;2023-01-16T06:54:14;0.30;99.90
34646;DHT22;20857;47.808;12.482;2023-01-16T06:56:39;0.40;99.90
34646;DHT22;20857;47.808;12.482;2023-01-16T06:59:05;0.30;99.90
34646;DHT22;20857;47.808;12.482;2023-01-16T07:01:30;0.30;99.90
34646;DHT22;20857;47.808;12.482;2023-01-16T07:03:56;0.10;99.90
34646;DHT22;20857;47.808;12.482;2023-01-16T07:06:21;0.10;99.90
34646;DHT22;20857;47.808;12.482;2023-01-16T07:08:47;0.20;99.90
34646;DHT22;20857;47.808;12.482;2023-01-16T07:11:15;0.40;99.90
34646;DHT22;20857;47.808;12.482;2023-01-16T07:13:40;0.60;99.90
34646;DHT22;20857;47.808;12.482;2023-01-16T07:16:06;0.60;99.90
34646;DHT22;20857;47.808;12.482;2023-01-16T07:18:50;0.90;99.90
34646;DHT22;20857;47.808;12.482;2023-01-16T07:21:34;0.80;99.90
34646;DHT22;20857;47.808;12.482;2023-01-16T07:24:20;0.80;99.90
34646;DHT22;20857;47.808;12.482;2023-01-16T07:26:47;0.80;99.90
34646;DHT22;20857;47.808;12.482;2023-01-16T07:29:15;0.80;99.90
34646;DHT22;20857;47.808;12.482;2023-01-16T07:31:41;0.80;99.90
34646;DHT22;20857;47.808;12.482;2023-01-16T07:34:06;0.80;99.90
34646;DHT22;20857;47.808;12.482;2023-01-16T07:36:31;0.70;99.90
34646;DHT22;20857;47.808;12.482;2023-01-16T07:38:57;0.60;99.90
34646;DHT22;20857;47.808;12.482;2023-01-16T07:41:22;0.50;99.90
34646;DHT22;20857;47.808;12.482;2023-01-16T07:43:48;0.50;99.90
34646;DHT22;20857;47.808;12.482;2023-01-16T07:46:13;0.40;99.90
34646;DHT22;20857;47.808;12.482;2023-01-16T07:48:39;0.30;99.90
34646;DHT22;20857;47.808;12.482;2023-01-16T07:51:04;0.20;99.90
34646;DHT22;20857;47.808;12.482;2023-01-16T07:53:30;0.30;99.90
34646;DHT22;20857;47.808;12.482;2023-01-16T07:55:56;0.20;99.90
34646;DHT22;20857;47.808;12.482;2023-01-16T07:58:22;0.30;99.90
34646;DHT22;20857;47.808;12.482;2023-01-16T08:00:48;0.20;99.90
34646;DHT22;20857;47.808;12.482;2023-01-16T08:03:14;0.20;99.90
34646;DHT22;20857;47.808;12.482;2023-01-16T08:05:40;0.10;99.90
34646;DHT22;20857;47.808;12.482;2023-01-16T08:08:06;0.10;99.90
34646;DHT22;20857;47.808;12.482;2023-01-16T08:10:31;0.20;99.90
34646;DHT22;20857;47.808;12.482;2023-01-16T08:12:57;0.10;99.90
34646;DHT22;20857;47.808;12.482;2023-01-16T08:15:22;0.40;99.90
34646;DHT22;20857;47.808;12.482;2023-01-16T08:17:48;0.20;99.90
34646;DHT22;20857;47.808;12.482;2023-01-16T08:20:13;0.30;99.90
34646;DHT22;20857;47.808;12.482;2023-01-16T08:22:42;0.50;99.90
34646;DHT22;20857;47.808;12.482;2023-01-16T08:25:08;0.50;99.90
34646;DHT22;20857;47.808;12.482;2023-01-16T08:27:34;0.60;99.90
34646;DHT22;20857;47.808;12.482;2023-01-16T08:29:59;0.60;99.90
34646;DHT22;20857;47.808;12.482;2023-01-16T08:32:25;0.50;99.90
34646;DHT22;20857;47.808;12.482;2023-01-16T08:34:50;0.40;99.90
34646;DHT22;20857;47.808;12.482;2023-01-16T08:37:16;0.40;99.90
34646;DHT22;20857;47.808;12.482;2023-01-16T08:39:41;0.50;99.90
34646;DHT22;20857;47.808;12.482;2023-01-16T08:42:07;0.50;99.90
34646;DHT22;20857;47.808;12.482;2023-01-16T08:44:51;2.50;99.90
34646;DHT22;20857;47.808;12.482;2023-01-16T08:47:35;1.40;99.90
34646;DHT22;20857;47.808;12.482;2023-01-16T08:50:20;0.80;99.90
34646;DHT22;20857;47.808;12.482;2023-01-16T08:53:05;0.90;99.90
34646;DHT22;20857;47.808;12.482;2023-01-16T08:55:30;0.90;99.90
34646;DHT22;20857;47.808;12.482;2023-01-16T08:57:56;0.90;99.90
34646;DHT22;20857;47.808;12.482;2023-01-16T09:00:26;1.10;99.90
34646;DHT22;20857;47.808;12.482;2023-01-16T09:02:51;1.10;99.90
34646;DHT22;20857;47.808;12.482;2023-01-16T09:05:18;1.20;99.90
34646;DHT22;20857;47.808;12.482;2023-01-16T09:07:43;1.30;99.90
34646;DHT22;20857;47.808;12.482;2023-01-16T09:10:09;1.30;99.90
34646;DHT22;20857;47.808;12.482;2023-01-16T09:12:34;1.40;99.90
34646;DHT22;20857;47.808;12.482;2023-01-16T09:15:19;1.40;99.90
34646;DHT22;20857;47.808;12.482;2023-01-16T09:17:44;1.60;99.90
34646;DHT22;20857;47.808;12.482;2023-01-16T09:20:10;1.60;99.90
34646;DHT22;20857;47.808;12.482;2023-01-16T09:22:35;1.80;99.90
34646;DHT22;20857;47.808;12.482;2023-01-16T09:25:01;1.90;99.90
34646;DHT22;20857;47.808;12.482;2023-01-16T09:27:27;2.10;99.90
34646;DHT22;20857;47.808;12.482;2023-01-16T09:29:52;2.10;99.90
34646;DHT22;20857;47.808;12.482;2023-01-16T09:32:18;2.10;99.90
34646;DHT22;20857;47.808;12.482;2023-01-16T09:34:44;2.20;99.90
34646;DHT22;20857;47.808;12.482;2023-01-16T09:37:09;2.40;99.90
34646;DHT22;20857;47.808;12.482;2023-01-16T09:39:35;2.30;99.90
34646;DHT22;20857;47.808;12.482;2023-01-16T09:44:45;2.60;99.90
34646;DHT22;20857;47.808;12.482;2023-01-16T09:47:10;2.80;99.90
34646;DHT22;20857;47.808;12.482;2023-01-16T09:52:06;3.10;99.90
34646;DHT22;20857;47.808;12.482;2023-01-16T09:54:56;3.10;99.90
34646;DHT22;20857;47.808;12.482;2023-01-16T09:57:56;3.30;99.90
34646;DHT22;20857;47.808;12.482;2023-01-16T10:00:40;3.30;99.90
34646;DHT22;20857;47.808;12.482;2023-01-16T10:03:08;3.40;99.90
34646;DHT22;20857;47.808;12.482;2023-01-16T10:05:36;3.50;99.90
34646;DHT22;20857;47.808;12.482;2023-01-16T10:08:22;3.50;99.90
34646;DHT22;20857;47.808;12.482;2023-01-16T10:21:46;3.90;99.90
34646;DHT22;20857;47.808;12.482;2023-01-16T10:31:05;4.20;99.90
34646;DHT22;20857;47.808;12.482;2023-01-16T10:33:57;4.30;99.90
34646;DHT22;20857;47.808;12.482;2023-01-16T10:36:27;4.40;99.90
34646;DHT22;20857;47.808;12.482;2023-01-16T10:38:58;4.60;99.90
34646;DHT22;20857;47.808;12.482;2023-01-16T10:41:31;4.70;99.90
34646;DHT22;20857;47.808;12.482;2023-01-16T10:47:09;4.90;99.90
34646;DHT22;20857;47.808;12.482;2023-01-16T10:49:53;5.00;99.90
34646;DHT22;20857;47.808;12.482;2023-01-16T10:52:19;5.10;99.90
34646;DHT22;20857;47.808;12.482;2023-01-16T10:54:44;5.00;99.90
34646;DHT22;20857;47.808;12.482;2023-01-16T10:57:16;5.10;99.90
34646;DHT22;20857;47.808;12.482;2023-01-16T10:59:43;5.30;99.90
34646;DHT22;20857;47.808;12.482;2023-01-16T11:02:16;5.40;99.90
34646;DHT22;20857;47.808;12.482;2023-01-16T11:04:44;5.50;99.90
34646;DHT22;20857;47.808;12.482;2023-01-16T11:07:17;5.60;99.90
34646;DHT22;20857;47.808;12.482;2023-01-16T11:09:43;5.70;99.90
34646;DHT22;20857;47.808;12.482;2023-01-16T11:12:11;5.80;99.90
34646;DHT22;20857;47.808;12.482;2023-01-16T11:14:55;5.90;99.90
34646;DHT22;20857;47.808;12.482;2023-01-16T11:17:39;6.00;99.90
34646;DHT22;20857;47.808;12.482;2023-01-16T11:20:35;6.00;99.90
34646;DHT22;20857;47.808;12.482;2023-01-16T11:23:20;7.70;99.90
34646;DHT22;20857;47.808;12.482;2023-01-16T11:25:46;6.00;99.90
34646;DHT22;20857;47.808;12.482;2023-01-16T11:28:14;6.20;99.90
34646;DHT22;20857;47.808;12.482;2023-01-16T11:30:45;7.20;99.90
34646;DHT22;20857;47.808;12.482;2023-01-16T11:33:19;9.20;99.90
34646;DHT22;20857;47.808;12.482;2023-01-16T11:35:53;6.40;99.90
34646;DHT22;20857;47.808;12.482;2023-01-16T11:38:19;6.50;99.90
34646;DHT22;20857;47.808;12.482;2023-01-16T11:40:45;6.60;99.90
34646;DHT22;20857;47.808;12.482;2023-01-16T11:43:21;6.60;99.90
34646;DHT22;20857;47.808;12.482;2023-01-16T11:46:07;6.50;99.90
34646;DHT22;20857;47.808;12.482;2023-01-16T11:48:44;7.50;99.90
34646;DHT22;20857;47.808;12.482;2023-01-16T11:51:17;6.20;99.90
34646;DHT22;20857;47.808;12.482;2023-01-16T11:53:44;6.00;99.90
34646;DHT22;20857;47.808;12.482;2023-01-16T11:58:58;6.20;99.90
34646;DHT22;20857;47.808;12.482;2023-01-16T12:01:40;6.20;99.90
34646;DHT22;20857;47.808;12.482;2023-01-16T12:04:31;6.40;99.90
34646;DHT22;20857;47.808;12.482;2023-01-16T12:07:01;6.50;99.90
34646;DHT22;20857;47.808;12.482;2023-01-16T12:12:50;6.50;99.90
34646;DHT22;20857;47.808;12.482;2023-01-16T12:15:25;6.60;99.90
34646;DHT22;20857;47.808;12.482;2023-01-16T12:21:00;6.50;99.90
34646;DHT22;20857;47.808;12.482;2023-01-16T12:23:36;6.30;99.90
34646;DHT22;20857;47.808;12.482;2023-01-16T12:26:06;6.20;99.90
34646;DHT22;20857;47.808;12.482;2023-01-16T12:36:50;6.00;99.90
34646;DHT22;20857;47.808;12.482;2023-01-16T12:42:04;6.10;99.90
34646;DHT22;20857;47.808;12.482;2023-01-16T12:45:09;6.30;99.90
34646;DHT22;20857;47.808;12.482;2023-01-16T12:50:12;6.50;99.90
34646;DHT22;20857;47.808;12.482;2023-01-16T12:52:57;6.50;99.90
34646;DHT22;20857;47.808;12.482;2023-01-16T12:55:33;9.40;99.90
34646;DHT22;20857;47.808;12.482;2023-01-16T13:00:39;6.50;99.90
34646;DHT22;20857;47.808;12.482;2023-01-16T13:05:48;6.60;99.90
34646;DHT22;20857;47.808;12.482;2023-01-16T13:08:22;6.40;99.90
34646;DHT22;20857;47.808;12.482;2023-01-16T13:10:52;6.40;99.90
34646;DHT22;20857;47.808;12.482;2023-01-16T13:13:40;8.30;99.90
34646;DHT22;20857;47.808;12.482;2023-01-16T13:18:42;6.60;99.90
34646;DHT22;20857;47.808;12.482;2023-01-16T13:21:11;6.80;99.90
34646;DHT22;20857;47.808;12.482;2023-01-16T13:23:43;6.90;99.90
34646;DHT22;20857;47.808;12.482;2023-01-16T13:26:11;7.00;99.90
34646;DHT22;20857;47.808;12.482;2023-01-16T13:28:45;10.30;99.90
34646;DHT22;20857;47.808;12.482;2023-01-16T13:31:17;7.10;99.90
34646;DHT22;20857;47.808;12.482;2023-01-16T13:33:43;7.10;99.90
34646;DHT22;20857;47.808;12.482;2023-01-16T13:41:41;7.30;99.90
34646;DHT22;20857;47.808;12.482;2023-01-16T13:44:24;7.30;99.90
34646;DHT22;20857;47.808;12.482;2023-01-16T13:47:10;7.30;99.90
34646;DHT22;20857;47.808;12.482;2023-01-16T13:49:36;8.40;99.90
34646;DHT22;20857;47.808;12.482;2023-01-16T13:52:02;10.30;99.90
34646;DHT22;20857;47.808;12.482;2023-01-16T13:54:35;7.20;99.90
34646;DHT22;20857;47.808;12.482;2023-01-16T13:57:03;9.90;99.90
34646;DHT22;20857;47.808;12.482;2023-01-16T14:02:17;7.10;99.90
34646;DHT22;20857;47.808;12.482;2023-01-16T14:04:43;6.90;99.90
34646;DHT22;20857;47.808;12.482;2023-01-16T14:07:45;9.30;99.90
34646;DHT22;20857;47.808;12.482;2023-01-16T14:10:37;7.10;99.90
34646;DHT22;20857;47.808;12.482;2023-01-16T14:15:48;7.10;99.90
34646;DHT22;20857;47.808;12.482;2023-01-16T14:18:35;7.00;99.90
34646;DHT22;20857;47.808;12.482;2023-01-16T14:21:01;8.10;99.90
34646;DHT22;20857;47.808;12.482;2023-01-16T14:23:29;6.80;99.90
34646;DHT22;20857;47.808;12.482;2023-01-16T14:26:16;9.40;99.90
34646;DHT22;20857;47.808;12.482;2023-01-16T14:28:45;6.70;99.90
34646;DHT22;20857;47.808;12.482;2023-01-16T14:31:18;6.60;99.90
34646;DHT22;20857;47.808;12.482;2023-01-16T14:33:45;6.50;99.90
34646;DHT22;20857;47.808;12.482;2023-01-16T14:36:11;8.90;99.90
34646;DHT22;20857;47.808;12.482;2023-01-16T14:38:38;6.60;99.90
34646;DHT22;20857;47.808;12.482;2023-01-16T14:41:10;6.50;99.90
34646;DHT22;20857;47.808;12.482;2023-01-16T14:44:11;8.30;99.90
34646;DHT22;20857;47.808;12.482;2023-01-16T14:47:10;6.40;99.90
34646;DHT22;20857;47.808;12.482;2023-01-16T14:49:58;6.40;99.90
34646;DHT22;20857;47.808;12.482;2023-01-16T14:52:50;6.40;99.90
34646;DHT22;20857;47.808;12.482;2023-01-16T14:55:43;6.20;99.90
34646;DHT22;20857;47.808;12.482;2023-01-16T14:58:12;6.20;99.90
34646;DHT22;20857;47.808;12.482;2023-01-16T15:00:38;8.10;99.90
34646;DHT22;20857;47.808;12.482;2023-01-16T15:03:19;6.20;99.90
34646;DHT22;20857;47.808;12.482;2023-01-16T15:05:46;6.10;99.90
34646;DHT22;20857;47.808;12.482;2023-01-16T15:10:50;6.10;99.90
34646;DHT22;20857;47.808;12.482;2023-01-16T15:15:56;6.00;99.90
34646;DHT22;20857;47.808;12.482;2023-01-16T15:18:25;6.10;99.90
34646;DHT22;20857;47.808;12.482;2023-01-16T15:21:14;6.10;99.90
34646;DHT22;20857;47.808;12.482;2023-01-16T15:23:58;6.20;99.90
34646;DHT22;20857;47.808;12.482;2023-01-16T15:26:37;6.20;99.90
34646;DHT22;20857;47.808;12.482;2023-01-16T15:31:42;6.10;99.90
34646;DHT22;20857;47.808;12.482;2023-01-16T15:34:19;6.10;99.90
34646;DHT22;20857;47.808;12.482;2023-01-16T15:36:46;6.10;99.90
34646;DHT22;20857;47.808;12.482;2023-01-16T15:41:43;5.90;99.90
34646;DHT22;20857;47.808;12.482;2023-01-16T15:44:28;6.00;99.90
34646;DHT22;20857;47.808;12.482;2023-01-16T15:47:19;5.90;99.90
34646;DHT22;20857;47.808;12.482;2023-01-16T15:52:16;5.70;99.90
34646;DHT22;20857;47.808;12.482;2023-01-16T15:54:42;5.50;99.90
34646;DHT22;20857;47.808;12.482;2023-01-16T15:57:15;5.40;99.90
34646;DHT22;20857;47.808;12.482;2023-01-16T15:59:49;5.40;99.90
34646;DHT22;20857;47.808;12.482;2023-01-16T16:02:19;5.30;99.90
34646;DHT22;20857;47.808;12.482;2023-01-16T16:04:48;5.30;99.90
34646;DHT22;20857;47.808;12.482;2023-01-16T16:07:16;5.30;99.90
34646;DHT22;20857;47.808;12.482;2023-01-16T16:09:42;5.20;99.90
34646;DHT22;20857;47.808;12.482;2023-01-16T16:12:09;5.30;99.90
34646;DHT22;20857;47.808;12.482;2023-01-16T16:14:35;5.20;99.90
34646;DHT22;20857;47.808;12.482;2023-01-16T16:17:26;5.00;99.90
34646;DHT22;20857;47.808;12.482;2023-01-16T16:20:24;5.00;99.90
34646;DHT22;20857;47.808;12.482;2023-01-16T16:22:50;5.00;99.90
34646;DHT22;20857;47.808;12.482;2023-01-16T16:25:18;4.90;99.90
34646;DHT22;20857;47.808;12.482;2023-01-16T16:27:47;4.80;99.90
34646;DHT22;20857;47.808;12.482;2023-01-16T16:30:15;4.90;99.90
34646;DHT22;20857;47.808;12.482;2023-01-16T16:32:41;4.80;99.90
34646;DHT22;20857;47.808;12.482;2023-01-16T16:35:15;4.70;99.90
34646;DHT22;20857;47.808;12.482;2023-01-16T16:37:41;4.70;99.90
34646;DHT22;20857;47.808;12.482;2023-01-16T16:40:13;4.60;99.90
34646;DHT22;20857;47.808;12.482;2023-01-16T16:42:47;4.60;99.90
34646;DHT22;20857;47.808;12.482;2023-01-16T16:47:45;4.50;99.90
34646;DHT22;20857;47.808;12.482;2023-01-16T16:52:45;4.50;99.90
34646;DHT22;20857;47.808;12.482;2023-01-16T16:55:27;4.50;99.90
34646;DHT22;20857;47.808;12.482;2023-01-16T16:57:54;4.50;99.90
34646;DHT22;20857;47.808;12.482;2023-01-16T17:00:20;4.50;99.90
34646;DHT22;20857;47.808;12.482;2023-01-16T17:02:49;4.50;99.90
34646;DHT22;20857;47.808;12.482;2023-01-16T17:05:16;4.50;99.90
34646;DHT22;20857;47.808;12.482;2023-01-16T17:07:46;4.50;99.90
34646;DHT22;20857;47.808;12.482;2023-01-16T17:10:12;4.50;99.90
34646;DHT22;20857;47.808;12.482;2023-01-16T17:12:38;4.50;99.90
34646;DHT22;20857;47.808;12.482;2023-01-16T17:15:05;4.30;99.90
34646;DHT22;20857;47.808;12.482;2023-01-16T17:17:30;4.60;99.90
34646;DHT22;20857;47.808;12.482;2023-01-16T17:19:56;4.40;99.90
34646;DHT22;20857;47.808;12.482;2023-01-16T17:22:21;4.50;99.90
34646;DHT22;20857;47.808;12.482;2023-01-16T17:24:47;4.60;99.90
34646;DHT22;20857;47.808;12.482;2023-01-16T17:27:16;4.60;99.90
34646;DHT22;20857;47.808;12.482;2023-01-16T17:29:41;4.50;99.90
34646;DHT22;20857;47.808;12.482;2023-01-16T17:32:14;4.50;99.90
34646;DHT22;20857;47.808;12.482;2023-01-16T17:34:42;4.70;99.90
34646;DHT22;20857;47.808;12.482;2023-01-16T17:37:09;4.50;99.90
34646;DHT22;20857;47.808;12.482;2023-01-16T17:39:38;4.70;99.90
34646;DHT22;20857;47.808;12.482;2023-01-16T17:42:04;4.80;99.90